Progress Software Price to Sales Ratio 2010-2024 | PRGS

Historical PS ratio values for Progress Software (PRGS) over the last 10 years. The current P/S ratio for Progress Software as of July 19, 2024 is . For more information on how our historical price data is adjusted see the Stock Price Adjustment Guide.
Progress Software P/S Ratio Historical Data
Date Stock Price TTM Sales per Share Price to Sales Ratio
2024-07-19 55.54 3.48
2024-05-31 50.47 $15.96 3.16
2024-02-29 53.17 $15.98 3.33
2023-11-30 53.50 $15.56 3.44
2023-08-31 60.23 $15.15 3.98
2023-05-31 59.23 $14.70 4.03
2023-02-28 56.54 $14.06 4.02
2022-11-30 52.33 $13.60 3.85
2022-08-31 47.08 $13.19 3.57
2022-05-31 47.08 $13.06 3.61
2022-02-28 42.81 $12.45 3.44
2021-11-30 46.86 $11.92 3.93
2021-08-31 44.87 $11.48 3.91
2021-05-31 42.79 $10.59 4.04
2021-02-28 40.69 $10.05 4.05
2020-11-30 38.19 $9.75 3.92
2020-08-31 35.93 $9.63 3.73
2020-05-31 38.15 $9.56 3.99
2020-02-29 35.07 $9.55 3.67
2019-11-30 39.33 $9.27 4.24
2019-08-31 35.23 $8.72 4.04
2019-05-31 38.04 $8.38 4.54
2018-11-30 32.40 $8.18 3.96
2018-08-31 37.55 $8.28 4.54
2018-05-31 34.63 $8.22 4.21
2018-02-28 42.69 $8.22 5.19
2017-11-30 37.54 $8.13 4.62
2019-02-28 34.03 $7.78 4.38
2017-08-31 30.39 $8.18 3.72
2017-05-31 26.33 $8.24 3.19
2017-02-28 25.75 $8.23 3.13
2016-11-30 26.43 $8.10 3.26
2016-08-31 25.83 $7.96 3.24
2016-05-31 23.44 $7.77 3.02
2016-02-29 22.45 $7.60 2.95
2015-11-30 21.36 $7.47 2.86
2015-08-31 24.12 $7.14 3.38
2015-05-31 23.44 $6.80 3.45
2015-02-28 24.34 $6.63 3.67
2014-11-30 22.96 $6.45 3.56
2014-08-31 20.62 $6.19 3.33
2014-05-31 19.34 $6.06 3.19
2014-02-28 22.20 $5.96 3.72
2013-11-30 23.45 $5.96 3.93
2013-08-31 21.78 $5.60 3.89
2013-05-31 20.93 $5.34 3.92
2013-02-28 20.05 $5.05 3.97
2012-11-30 17.90 $5.08 3.52
2012-08-31 17.12 $5.65 3.03
2012-05-31 17.11 $6.43 2.66
2011-11-30 18.13 $7.18 2.52
2011-08-31 18.54 $7.86 2.36
2011-05-31 24.10 $7.39 3.26
2011-02-28 26.14 $7.38 3.54
2010-11-30 22.86 $7.38 3.10
2012-02-29 20.67 $7.31 2.83
2010-08-31 15.85 $8.15 1.95
2010-05-31 18.96 $8.15 2.33
2010-02-28 16.63 $8.14 2.04
2009-11-30 14.29 $8.06 1.77
Sector Industry Market Cap Revenue
Computer and Technology Computer Software $2.376B $0.694B
Progress offers the leading platform for developing and deploying mission-critical business applications. Progress empowers enterprises and ISVs to build and deliver cognitive-first applications that harness big data to derive business insights and competitive advantage. Progress offers leading technologies for easily building powerful user interfaces across any type of device, a reliable, scalable and secure backend platform to deploy modern applications, leading data connectivity to all sources, and award-winning predictive analytics that brings the power of machine learning to any organization.
Stock Name Country Market Cap PE Ratio
Microsoft (MSFT) United States $3248.735B 37.85
Oracle (ORCL) United States $381.852B 31.00
Adobe (ADBE) United States $244.313B 39.53
Salesforce (CRM) United States $239.953B 35.73
Intuit (INTU) United States $177.948B 55.45
Synopsys (SNPS) United States $86.279B 59.46
Cadence Design Systems (CDNS) United States $76.265B 72.53
Autodesk (ADSK) United States $52.250B 47.63
Dassault Systemes SA (DASTY) France $50.191B 32.61
MicroStrategy (MSTR) United States $31.545B 0.00
ANSYS (ANSS) United States $27.459B 50.81
PTC (PTC) United States $21.058B 55.85
SS&C Technologies Holdings (SSNC) United States $16.459B 15.59
Manhattan Associates (MANH) United States $13.459B 71.43
Descartes Systems Group (DSGX) Canada $8.488B 71.01
Open Text (OTEX) Canada $8.286B 8.50
Trend Micro (TMICY) Japan $6.411B 46.43
CommVault Systems (CVLT) United States $5.299B 85.87
Pegasystems (PEGA) United States $5.074B 44.86
ACI Worldwide (ACIW) United States $4.369B 20.93
Blackbaud (BLKB) United States $3.993B 34.38
Sapiens (SPNS) Israel $2.193B 29.91
Verint Systems (VRNT) United States $2.091B 19.58
BlackBerry (BB) Canada $1.429B 0.00
PROS Holdings (PRO) United States $1.109B 0.00
Simulations Plus (SLP) United States $0.791B 59.01
Rand Worldwide (RWWI) United States $0.663B 0.00
Magic Software Enterprises (MGIC) Israel $0.544B 11.54
Canaan (CAN) China $0.339B 0.00
American Software (AMSWA) United States $0.320B 27.49
OptimizeRx (OPRX) United States $0.183B 0.00
Rigetti Computing (RGTI) United States $0.179B 0.00
Neonode (NEON) Sweden $0.048B 0.00
Icad Inc (ICAD) United States $0.035B 0.00
NetSol Technologies (NTWK) United States $0.032B 0.00
Wetouch Technology (WETH) $0.026B 0.00
Smith Micro Software (SMSI) United States $0.022B 0.00
Hanryu Holdings (HRYU) South Korea $0.014B 0.00
GSE Systems (GVP) United States $0.011B 0.00
SAP SE (SAP) Germany $0.000B 50.44